KGHG

Marshfield Municipal - George Harlow Field Airport

Marshfield, Massachusetts, USA
METAR KGHG 231055Z AUTO 24004KT 10SM BKN007 BKN045 OVC110 14/13 A2987 RMK AO2
Observed Flight Rules
May-23 @ 10:55 UTC (22 minutes ago) Instrument Flight Rules
Wind Visibility Clouds
240° at 4 knots 10 miles
  • Broken at 700' AGL
  • Broken at 4,500' AGL
  • Overcast at 11,000' AGL
Temperatures Readings
Current 14°C / 57°F
Dewpoint 13°C / 55°F
Humidity 94%
Altimeter 29.87" Hg
Pressure 1012 hPa
Elevation 4
METAR KGHG 231055Z AUTO 24004KT 10SM BKN007 BKN045 OVC110 14/13 A2987 RMK AO2
Observed Flight Rules
May-23 @ 10:55 UTC
(22 minutes ago)
IFR
Wind Visibility
240° at 4 knots 10 miles
Clouds
  • Broken at 700' AGL
  • Broken at 4,500' AGL
  • Overcast at 11,000' AGL
Temperature Dewpoint
14°C / 57°F 13°C / 55°F
Humidity Altimeter Pressure
94% 29.87" Hg 1012 hPa